ADDS METAR Data INFO
IDs: Format: Raw Decoded Include TAF

Data at: 0300 UTC 21 Oct 2017

PASX 210256Z AUTO 04003KT 10SM CLR M03/M12 A2905 RMK AO2 SLP845 T10331117 56013 FZRANO $
PASX 210156Z AUTO VRB04KT 10SM CLR M02/M12 A2905 RMK AO2 SLP846 T10221122 FZRANO $
PASX 210056Z AUTO 04005KT 10SM CLR M02/M12 A2909 RMK AO2 PRESRR SLP859 T10171122 FZRANO $
PASX 202356Z AUTO 05006KT 10SM CLR M02/M12 A2910 RMK AO2 SLP865 T10221122 11017 21128 51010 FZRANO $
PASX 202156Z AUTO 05004KT 10SM CLR M03/M12 A2909 RMK AO2 SLP860 T10281117 FZRANO $
PASX 202056Z AUTO VRB03KT 10SM CLR M03/M11 A2907 RMK AO2 SLP854 T10331111 51060 FZRANO $
PASX 202054Z AUTO VRB03KT 10SM CLR M03/M11 A2907 RMK AO2 FZRANO $
PASX 201956Z AUTO 09003KT 10SM CLR M06/M11 A2896 RMK AO2 SLP816 T10611106 FZRANO $
PASX 201856Z AUTO 09003KT 10SM CLR M11/M12 A2889 RMK AO2 SLP794 T11061122 FZRANO $
PASX 201756Z AUTO 07004KT 10SM CLR M13/M14 A2885 RMK AO2 SLP779 T11281144 11106 21139 55010 FZRANO $
PASX 201656Z AUTO 08004KT 10SM CLR M13/M15 A2880 RMK AO2 SLP763 T11331150 FZRANO $
PASX 201556Z AUTO 07003KT 10SM CLR M13/M15 A2885 RMK AO2 SLP780 T11331150 FZRANO $
PASX 201456Z AUTO 08003KT 10SM CLR M13/M15 A2888 RMK AO2 SLP789 T11281150 58037 FZRANO $
PASX 201356Z AUTO 08003KT 10SM CLR M12/M14 A2892 RMK AO2 SLP804 T11221144 FZRANO $
PASX 201256Z AUTO 06005KT 10SM CLR M11/M13 A2895 RMK AO2 SLP813 T11111133 FZRANO $
PASX 201156Z AUTO 08004KT 10SM CLR M11/M13 A2899 RMK AO2 SLP826 T11061128 11039 21122 56051 FZRANO $
PASX 201056Z AUTO 00000KT 10SM CLR M11/M14 A2903 RMK AO2 SLP839 T11111144 FZRANO $
PASX 200956Z AUTO 00000KT 10SM CLR M10/M13 A2907 RMK AO2 PRESFR SLP853 T11001133 FZRANO $
PASX 200856Z AUTO 00000KT 10SM CLR M08/M13 A2914 RMK AO2 PRESFR SLP878 T10831128 400171089 58013 FZRANO $
PASX 200756Z AUTO 00000KT 10SM CLR M06/M12 A2916 RMK AO2 SLP886 T10561117 FZRANO $
PASX 200656Z AUTO 09003KT 10SM CLR M07/M13 A2916 RMK AO2 SLP885 T10721128 FZRANO $
PASX 200556Z AUTO 00000KT 10SM CLR M04/M12 A2918 RMK AO2 SLP891 T10441117 10017 21067 58040 FZRANO $
PASX 200456Z AUTO 00000KT 10SM CLR M05/M12 A2922 RMK AO2 SLP904 T10501117 FZRANO $
PASX 200356Z AUTO 00000KT 10SM CLR M04/M13 A2927 RMK AO2 SLP921 T10441128 FZRANO $
PASX 200256Z AUTO 00000KT 10SM CLR M01/M13 A2930 RMK AO2 SLP931 T10061128 51079 FZRANO $
PASX 200156Z AUTO 02007KT 10SM CLR 01/M15 A2926 RMK AO2 SLP916 T00061150 FZRANO $
PASX 200056Z AUTO 01007KT 10SM CLR 01/M14 A2923 RMK AO2 SLP907 T00111144 FZRANO $
PASX 192356Z AUTO 35009KT 330V030 10SM CLR 02/M14 A2906 RMK AO2 PRESFR SLP852 T00171144 10017 21011 58075 FZRANO $
PASX 192256Z AUTO 04011KT 10SM CLR 01/M15 A2932 RMK AO2 SLP939 T00111150 FZRANO $
PASX 192156Z AUTO 01009G17KT 10SM CLR 01/M13 A2932 RMK AO2 SLP938 T00111133 FZRANO $
PASX 192056Z AUTO 36010KT 10SM CLR 01/M13 A2929 RMK AO2 SLP927 T00061128 53035 FZRANO $
PASX 191956Z AUTO 36010G15KT 10SM CLR 01/M12 A2926 RMK AO2 SLP916 T00061122 FZRANO $
PASX 191856Z AUTO 35008KT 10SM CLR 00/M11 A2921 RMK AO2 SLP901 T00001106 FZRANO $
PASX 191756Z AUTO 34004KT 10SM CLR M01/M11 A2918 RMK AO2 PRESFR SLP893 T10111111 10000 21011 58038 FZRANO $
PASX 191656Z AUTO 36004KT 10SM CLR M01/M11 A2931 RMK AO2 SLP935 T10111111 FZRANO $
PASX 191556Z AUTO VRB04KT 10SM CLR M01/M11 A2931 RMK AO2 SLP933 T10111111 FZRANO $